Latest Weather Observations for Gudgenby

IDN60901

Issued at 1:51 am EST Thursday 1 October 2020 (issued every 10 minutes, with the page automatically refreshed every 10 minutes)

About weather observations | Map of Canberra area stations | Latest observations for Canberra area | Other Formats
Station Details ID: 250072 Name: GUDGENBY (PCS) Lat: -35.73 Lon: 148.98 Height: 1035.0 m

Portable automatic weather stations (PAWS) are operated by other organisations, such as Fire and Emergency Services, and are included here by agreement. Portable stations may be deployed to a location for a short period and their location may be subject to change without notice. Wind observations from these stations are provided from heights of either three (3) or ten (10) metres above ground level (AGL).

Data from the previous 72 hours. | See also: Recent months for locations in Aust Capital Territory
Date/Time
EST
Temp
°C
App
Temp
°C
Dew
Point
°C
Rel
Hum
%
Delta-T
°C
Wind Press
QNH
hPa
Press
MSL
hPa
Rain since
9am
mm
Dir  Spd
km/h
Gust
km/h
Spd
kts
Gust
kts
01/01:40am 10.1 4.0 4.9 70 2.5 WSW 26 37 14 20 - - 12.0
01/01:30am 10.6 6.5 6.4 75 2.1 WNW 17 22 9 12 - - 12.0
01/01:20am 10.4 6.3 6.1 75 2.1 NW 17 20 9 11 - - 11.8
01/01:10am 10.5 4.3 6.2 75 2.1 WNW 28 37 15 20 - - 11.8
01/01:00am 10.8 6.3 5.9 72 2.4 NW 19 24 10 13 - - 11.8
01/12:50am 10.7 5.2 6.0 73 2.3 WNW 24 33 13 18 - - 11.8
01/12:40am 10.6 5.7 6.8 77 1.9 NW 22 30 12 16 - - 11.8
01/12:30am 10.9 4.4 6.5 74 2.2 NW 30 37 16 20 - - 11.8
01/12:20am 10.6 5.2 6.3 75 2.1 WNW 24 30 13 16 - - 11.6
01/12:10am 10.0 4.8 7.1 82 1.5 NNW 24 30 13 16 - - 11.6
01/12:00am 10.1 6.7 7.8 86 1.2 WNW 15 20 8 11 - - 11.4
 
Date/Time
EST
Temp
°C
App
Temp
°C
Dew
Point
°C
Rel
Hum
%
Delta-T
°C
Wind Press
QNH
hPa
Press
MSL
hPa
Rain since
9am
mm
Dir  Spd
km/h
Gust
km/h
Spd
kts
Gust
kts
30/11:50pm 9.9 8.0 7.7 86 1.1 NNW 7 11 4 6 - - 10.8
30/11:40pm 9.9 7.4 8.3 90 0.8 NNE 11 13 6 7 - - 10.4
30/11:30pm 9.9 7.7 8.0 88 1.0 NNE 9 13 5 7 - - 10.4
30/11:20pm 9.8 7.3 8.2 90 0.8 N 11 15 6 8 - - 10.4
30/11:10pm 9.6 7.1 8.1 90 0.8 NNE 11 15 6 8 - - 10.4
30/11:00pm 9.6 6.8 8.7 94 0.5 NNE 13 17 7 9 - - 10.2
30/10:50pm 9.2 6.9 9.0 99 0.1 NE 11 15 6 8 - - 10.2
30/10:40pm 9.2 6.9 9.0 99 0.1 NE 11 13 6 7 - - 10.0
30/10:30pm 9.2 7.7 9.0 99 0.1 NE 7 9 4 5 - - 9.8
30/10:20pm 9.2 7.8 9.0 99 0.1 W 6 9 3 5 - - 9.2
30/10:10pm 9.3 7.9 9.0 98 0.2 E 6 7 3 4 - - 7.2
30/10:00pm 9.3 7.9 8.9 97 0.2 E 6 7 3 4 - - 6.2
30/09:50pm 9.4 8.4 8.8 96 0.3 ENE 4 6 2 3 - - 5.6
30/09:40pm 9.4 7.8 8.8 96 0.3 NNE 7 9 4 5 - - 5.2
30/09:30pm 9.4 7.4 8.7 95 0.4 NNE 9 11 5 6 - - 4.8
30/09:20pm 9.5 7.8 8.5 93 0.5 N 7 11 4 6 - - 4.6
30/09:10pm 9.5 7.9 8.6 94 0.5 NNW 7 9 4 5 - - 3.6
30/09:00pm 9.4 7.0 8.6 95 0.4 N 11 13 6 7 - - 2.6
30/08:50pm 9.4 6.6 8.7 95 0.4 N 13 15 7 8 - - 2.2
30/08:40pm 9.2 6.4 8.6 96 0.3 NNE 13 17 7 9 - - 2.0
30/08:30pm 9.1 5.9 8.6 97 0.3 NNE 15 19 8 10 - - 1.8
30/08:20pm 9.2 6.0 8.6 96 0.3 NNE 15 17 8 9 - - 1.8
30/08:10pm 9.1 5.9 8.4 95 0.4 NNE 15 19 8 10 - - 1.8
30/08:00pm 9.1 5.5 8.5 96 0.3 NNE 17 19 9 10 - - 1.8
30/07:50pm 9.4 6.2 8.5 94 0.5 NNE 15 19 8 10 - - 1.6
30/07:40pm 9.6 7.2 8.5 93 0.6 N 11 17 6 9 - - 1.6
30/07:30pm 9.7 8.1 8.2 90 0.8 N 6 9 3 5 - - 1.4
30/07:20pm 9.7 7.9 7.8 88 1.0 NNW 7 9 4 5 - - 1.4
30/07:10pm 9.9 6.9 7.9 87 1.0 NNW 13 20 7 11 - - 1.4
30/07:00pm 10.0 5.6 7.6 85 1.2 N 20 24 11 13 - - 1.4
30/06:50pm 9.7 6.7 7.7 87 1.0 N 13 19 7 10 - - 1.4
30/06:40pm 9.8 7.2 7.8 87 1.0 N 11 13 6 7 - - 1.4
30/06:30pm 9.7 7.4 7.6 87 1.1 N 9 11 5 6 - - 1.4
30/06:20pm 9.9 7.3 7.6 85 1.2 N 11 15 6 8 - - 1.4
30/06:10pm 10.0 7.7 7.6 85 1.2 N 9 13 5 7 - - 1.4
30/06:00pm 9.7 7.8 7.7 87 1.0 N 7 9 4 5 - - 1.4
30/05:50pm 9.7 7.5 8.0 89 0.9 N 9 15 5 8 - - 1.4
30/05:40pm 9.6 7.5 8.1 90 0.8 NNW 9 11 5 6 - - 1.4
30/05:30pm 9.6 7.8 8.1 90 0.8 NW 7 11 4 6 - - 1.4
30/05:20pm 9.6 7.9 8.3 92 0.7 NW 7 9 4 5 - - 1.2
30/05:10pm 9.6 7.1 8.2 91 0.7 NNW 11 17 6 9 - - 0.8
30/05:00pm 9.8 6.5 8.0 88 0.9 NNW 15 20 8 11 - - 0.6
30/04:50pm 9.6 6.3 7.9 89 0.9 N 15 19 8 10 - - 0.4
30/04:40pm 9.6 7.1 8.3 92 0.7 N 11 15 6 8 - - 0.2
30/04:30pm 9.5 6.9 7.9 90 0.8 N 11 13 6 7 - - 0.2
30/04:20pm 9.5 5.7 7.7 88 0.9 N 17 20 9 11 - - 0.2
30/04:10pm 9.3 5.2 7.7 90 0.8 N 19 22 10 12 - - 0.0
30/04:00pm 9.1 5.3 7.5 90 0.8 NNE 17 19 9 10 - - 0.0
30/03:50pm 9.2 5.9 7.9 92 0.7 N 15 17 8 9 - - 0.0
30/03:40pm 9.5 5.4 8.0 90 0.8 N 19 20 10 11 - - 0.0
30/03:30pm 9.7 5.4 8.0 89 0.9 N 20 22 11 12 - - 0.0
30/03:20pm 10.5 5.3 7.4 81 1.6 NNW 24 26 13 14 - - 0.0
30/03:10pm 10.7 4.4 7.3 79 1.7 NNW 30 33 16 18 - - 0.0
30/03:00pm 10.7 4.4 7.2 79 1.8 NNW 30 33 16 18 - - 0.0
30/02:50pm 10.6 4.1 8.0 84 1.3 NNW 32 39 17 21 - - 0.0
30/02:40pm 10.8 3.0 6.7 76 2.1 NNW 37 41 20 22 - - 0.0
30/02:30pm 11.0 3.6 6.8 75 2.1 NNW 35 39 19 21 - - 0.0
30/02:20pm 11.7 4.7 6.8 72 2.5 NNW 33 43 18 23 - - 0.0
30/02:10pm 11.3 5.7 7.1 75 2.1 NNW 26 28 14 15 - - 0.0
30/02:00pm 10.4 5.9 6.8 78 1.8 NNW 20 22 11 12 - - 0.0
30/01:50pm 10.3 5.5 7.4 82 1.5 NW 22 24 12 13 - - 0.0
30/01:40pm 10.2 5.8 7.6 84 1.3 NNW 20 22 11 12 - - 0.0
30/01:30pm 10.4 4.9 7.4 82 1.5 NNW 26 30 14 16 - - 0.0
30/01:20pm 10.4 4.8 7.0 79 1.7 NNW 26 28 14 15 - - 0.0
30/01:10pm 10.3 3.8 6.7 78 1.8 NNW 30 35 16 19 - - 0.0
30/01:00pm 10.4 4.2 6.2 75 2.1 NNW 28 30 15 16 - - 0.0
30/12:50pm 10.5 3.6 6.4 76 2.0 NNW 32 37 17 20 - - 0.0
30/12:40pm 10.7 3.5 6.0 73 2.3 NNW 33 35 18 19 - - 0.0
30/12:30pm 11.6 4.3 5.6 66 3.0 N 33 39 18 21 - - 0.0
30/12:20pm 12.0 5.7 5.6 65 3.2 N 28 33 15 18 - - 0.0
30/12:10pm 12.0 4.4 5.9 66 3.0 NNW 35 39 19 21 - - 0.0
30/12:00pm 11.9 5.5 5.1 63 3.3 NNW 28 35 15 19 - - 0.0
30/11:50am 11.7 7.0 5.2 64 3.2 NNW 19 22 10 12 - - 0.0
30/11:40am 11.8 8.2 5.1 63 3.3 N 13 17 7 9 - - 0.0
30/11:30am 11.8 7.9 5.5 65 3.1 N 15 17 8 9 - - 0.0
30/11:20am 11.3 6.8 4.4 62 3.3 NNW 17 20 9 11 - - 0.0
30/11:10am 11.4 7.0 5.0 65 3.1 NNW 17 20 9 11 - - 0.0
30/11:00am 11.6 7.7 5.4 65 3.0 NNW 15 19 8 10 - - 0.0
30/10:50am 11.3 6.0 5.1 65 3.0 NW 22 28 12 15 - - 0.0
30/10:40am 11.4 6.3 4.2 61 3.4 NW 20 28 11 15 - - 0.0
30/10:30am 11.4 6.3 4.1 61 3.5 NW 20 24 11 13 - - 0.0
30/10:20am 11.8 5.7 4.8 62 3.4 NW 26 28 14 15 - - 0.0
30/10:10am 12.3 5.8 4.7 60 3.7 NW 28 32 15 17 - - 0.0
30/10:00am 12.7 6.2 4.8 58 3.9 NW 28 32 15 17 - - 0.0
30/09:50am 11.8 4.7 3.6 57 3.9 NW 30 37 16 20 - - 0.0
30/09:40am 11.8 4.2 3.7 57 3.8 NW 33 41 18 22 - - 0.0
30/09:30am 12.2 5.5 3.8 56 4.0 NW 28 35 15 19 - - 0.0
30/09:20am 12.9 6.6 3.5 53 4.5 NW 26 33 14 18 - - 0.0
30/09:10am 11.8 4.8 4.1 59 3.7 NW 30 33 16 18 - - 0.0
30/09:00am 11.4 6.9 4.0 60 3.5 NW 17 26 9 14 - - 0.0
30/08:50am 11.1 8.7 4.4 63 3.2 SW 6 13 3 7 - - 0.0
30/08:40am 11.3 9.5 5.2 66 3.0 E 4 6 2 3 - - 0.0
30/08:30am 10.9 9.1 5.5 69 2.6 E 4 6 2 3 - - 0.0
30/08:20am 10.3 8.3 4.6 68 2.7 ESE 4 6 2 3 - - 0.0
30/08:10am 10.0 8.5 4.8 70 2.5 SE 2 4 1 2 - - 0.0
30/08:00am 9.6 8.1 5.1 73 2.2 NNE 2 4 1 2 - - 0.0
30/07:50am 9.1 7.1 4.5 73 2.2 E 4 6 2 3 - - 0.0
30/07:40am 8.9 6.8 4.1 72 2.2 ESE 4 6 2 3 - - 0.0
30/07:30am 8.2 6.1 3.9 74 2.0 SSE 4 4 2 2 - - 0.0
30/07:20am 7.6 5.8 3.6 76 1.8 S 2 4 1 2 - - 0.0
30/07:10am 6.8 5.1 4.1 83 1.2 SW 2 4 1 2 - - 0.0
30/07:00am 6.2 4.1 3.8 85 1.1 SSE 4 6 2 3 - - 0.0
30/06:50am 6.1 3.6 3.9 86 1.0 SE 6 6 3 3 - - 0.0
30/06:40am 6.0 3.7 3.0 81 1.3 S 4 6 2 3 - - 0.0
30/06:30am 5.7 3.5 3.1 83 1.2 NW 4 4 2 2 - - 0.0
30/06:20am 6.2 4.4 3.2 81 1.3 SSW 2 4 1 2 - - 0.0
30/06:10am 6.3 4.0 2.7 78 1.6 S 4 6 2 3 - - 0.0
30/06:00am 6.1 3.8 2.8 79 1.5 S 4 6 2 3 - - 0.0
30/05:50am 5.9 3.2 2.8 80 1.4 S 6 6 3 3 - - 0.0
30/05:40am 6.1 3.4 2.8 79 1.5 S 6 6 3 3 - - 0.0
30/05:30am 6.4 4.1 2.7 77 1.6 ESE 4 4 2 2 - - 0.0
30/05:20am 6.6 4.7 2.7 76 1.7 SSE 2 4 1 2 - - 0.0
30/05:10am 6.5 4.1 2.4 75 1.8 SE 4 6 2 3 - - 0.0
30/05:00am 6.4 4.1 2.6 77 1.7 SE 4 4 2 2 - - 0.0
30/04:50am 6.4 4.0 2.4 75 1.8 SSE 4 6 2 3 - - 0.0
30/04:40am 6.4 3.7 2.7 77 1.6 SSE 6 6 3 3 - - 0.0
30/04:30am 6.7 4.0 2.5 74 1.9 SSE 6 6 3 3 - - 0.0
30/04:20am 6.6 4.2 2.4 74 1.8 SE 4 6 2 3 - - 0.0
30/04:10am 6.7 4.4 2.6 75 1.8 SE 4 6 2 3 - - 0.0
30/04:00am 7.0 4.7 2.6 73 1.9 ESE 4 6 2 3 - - 0.0
30/03:50am 7.2 5.2 2.5 72 2.1 ENE 2 4 1 2 - - 0.0
30/03:40am 7.4 5.4 2.4 70 2.2 E 2 4 1 2 - - 0.0
30/03:30am 7.5 4.7 2.3 69 2.3 ENE 6 9 3 5 - - 0.0
30/03:20am 7.8 4.1 2.6 69 2.3 NE 11 13 6 7 - - 0.0
30/03:10am 7.6 4.2 2.1 68 2.4 ENE 9 11 5 6 - - 0.0
30/03:00am 7.7 4.9 2.3 68 2.4 E 6 7 3 4 - - 0.0
30/02:50am 8.2 5.8 1.9 64 2.8 NE 4 4 2 2 - - 0.0
30/02:40am 7.8 5.0 2.1 67 2.5 NE 6 7 3 4 - - 0.0
30/02:30am 7.4 4.5 2.5 71 2.2 ENE 7 9 4 5 - - 0.0
30/02:20am 7.3 5.0 2.9 73 2.0 E 4 6 2 3 - - 0.0
30/02:10am 7.8 5.5 2.8 70 2.2 E 4 6 2 3 - - 0.0
30/02:00am 8.0 5.3 2.5 68 2.5 NE 6 9 3 5 - - 0.0
30/01:50am 7.9 4.6 2.6 69 2.4 NE 9 13 5 7 - - 0.0
30/01:40am 8.0 4.4 2.8 70 2.3 NE 11 13 6 7 - - 0.0
30/01:30am 8.1 4.4 2.6 68 2.5 NE 11 13 6 7 - - 0.0
30/01:20am 8.2 4.9 2.5 67 2.5 NNE 9 15 5 8 - - 0.0
30/01:10am 8.6 5.6 2.2 64 2.9 N 7 11 4 6 - - 0.0
30/01:00am 8.2 5.4 1.9 64 2.8 NW 6 7 3 4 - - 0.0
30/12:50am 7.9 5.1 1.9 66 2.6 NW 6 9 3 5 - - 0.0
30/12:40am 8.0 4.0 2.9 70 2.3 N 13 17 7 9 - - 0.0
30/12:30am 8.4 3.2 2.6 67 2.6 N 19 20 10 11 - - 0.0
30/12:20am 8.5 3.1 2.5 66 2.7 N 20 24 11 13 - - 0.0
30/12:10am 8.4 3.5 2.3 65 2.7 N 17 24 9 13 - - 0.0
30/12:00am 8.1 5.1 2.3 67 2.6 NNE 7 13 4 7 - - 0.0
 
Date/Time
EST
Temp
°C
App
Temp
°C
Dew
Point
°C
Rel
Hum
%
Delta-T
°C
Wind Press
QNH
hPa
Press
MSL
hPa
Rain since
9am
mm
Dir  Spd
km/h
Gust
km/h
Spd
kts
Gust
kts
29/11:50pm 8.4 5.4 2.0 64 2.8 NNE 7 11 4 6 - - 0.0
29/11:40pm 8.7 4.2 1.9 62 3.0 NNE 15 19 8 10 - - 0.0
29/11:30pm 8.7 4.0 1.0 58 3.3 NNE 15 17 8 9 - - 0.0
29/11:20pm 8.7 4.1 1.7 61 3.1 NNE 15 17 8 9 - - 0.0
29/11:10pm 9.2 4.5 0.8 55 3.6 N 15 19 8 10 - - 0.0
29/11:00pm 9.1 5.2 1.3 58 3.4 NNW 11 13 6 7 - - 0.0
29/10:50pm 9.2 5.7 1.4 58 3.4 NNW 9 11 5 6 - - 0.0
29/10:40pm 9.1 5.5 0.9 56 3.6 NNW 9 11 5 6 - - 0.0
29/10:30pm 8.9 4.3 1.3 59 3.3 NNW 15 17 8 9 - - 0.0
29/10:20pm 9.0 4.3 1.2 58 3.4 NNW 15 17 8 9 - - 0.0
29/10:10pm 9.0 4.7 0.8 56 3.5 NNW 13 13 7 7 - - 0.0
29/10:00pm 9.0 5.4 0.7 56 3.6 NNW 9 11 5 6 - - 0.0
29/09:50pm 8.8 5.2 0.8 57 3.5 NNW 9 11 5 6 - - 0.0
29/09:40pm 9.0 4.7 1.3 58 3.4 NNW 13 17 7 9 - - 0.0
29/09:30pm 8.9 5.0 1.4 59 3.3 N 11 15 6 8 - - 0.0
29/09:20pm 8.8 4.3 1.9 62 3.1 NNW 15 20 8 11 - - 0.0
29/09:10pm 9.0 4.4 1.6 60 3.3 NNW 15 19 8 10 - - 0.0
29/09:00pm 8.8 3.9 1.9 62 3.1 NW 17 20 9 11 - - 0.0
29/08:50pm 8.7 3.5 2.5 65 2.8 NNW 19 20 10 11 - - 0.0
29/08:40pm 8.6 3.4 2.6 66 2.7 NW 19 20 10 11 - - 0.0
29/08:30pm 8.5 3.3 2.6 66 2.6 NNW 19 20 10 11 - - 0.0
29/08:20pm 8.8 4.0 2.8 66 2.7 NNW 17 20 9 11 - - 0.0
29/08:10pm 9.0 4.9 2.4 63 3.0 NNW 13 15 7 8 - - 0.0
29/08:00pm 9.0 4.9 2.5 64 2.9 NNW 13 15 7 8 - - 0.0
29/07:50pm 9.3 4.5 2.7 63 3.0 NNW 17 20 9 11 - - 0.0
29/07:40pm 9.6 4.3 2.0 59 3.4 NNW 19 20 10 11 - - 0.0
29/07:30pm 9.6 4.3 2.1 59 3.4 N 19 20 10 11 - - 0.0
29/07:20pm 9.7 4.4 1.7 57 3.6 N 19 20 10 11 - - 0.0
29/07:10pm 9.9 4.4 2.0 58 3.5 N 20 24 11 13 - - 0.0
29/07:00pm 9.8 4.3 1.6 56 3.6 N 20 24 11 13 - - 0.0
29/06:50pm 10.0 4.2 2.4 59 3.4 N 22 24 12 13 - - 0.0
29/06:40pm 10.2 4.0 2.2 57 3.6 N 24 28 13 15 - - 0.0
29/06:30pm 10.5 4.7 2.3 57 3.7 N 22 26 12 14 - - 0.0
29/06:20pm 10.5 5.2 2.8 59 3.5 N 20 24 11 13 - - 0.0
29/06:10pm 10.8 5.1 2.6 57 3.8 NNE 22 26 12 14 - - 0.0
29/06:00pm 10.8 5.1 2.8 57 3.7 N 22 26 12 14 - - 0.0
29/05:50pm 11.2 5.1 3.0 57 3.8 NNE 24 26 13 14 - - 0.0
29/05:40pm 11.3 4.4 2.6 55 4.0 NNE 28 30 15 16 - - 0.0
29/05:30pm 11.5 5.1 3.3 57 3.8 N 26 28 14 15 - - 0.0
29/05:20pm 11.7 6.1 3.4 56 3.9 NNE 22 24 12 13 - - 0.0
29/05:10pm 11.9 6.0 3.9 58 3.8 NNE 24 28 13 15 - - 0.0
29/05:00pm 12.1 6.2 3.7 56 4.0 NNE 24 28 13 15 - - 0.0
29/04:50pm 12.2 5.9 3.8 56 4.0 NNE 26 30 14 16 - - 0.0
29/04:40pm 12.3 6.3 3.4 54 4.2 NNE 24 28 13 15 - - 0.0
29/04:30pm 12.4 6.1 3.9 56 4.1 N 26 28 14 15 - - 0.0
29/04:20pm 12.6 7.0 3.6 54 4.3 N 22 26 12 14 - - 0.0
29/04:10pm 12.6 7.0 3.5 54 4.3 NNE 22 28 12 15 - - 0.0
29/04:00pm 12.7 6.7 3.5 53 4.4 N 24 30 13 16 - - 0.0
29/03:50pm 12.8 7.1 3.1 51 4.6 N 22 26 12 14 - - 0.0
29/03:40pm 13.0 6.9 2.8 50 4.8 NNE 24 26 13 14 - - 0.0
29/03:30pm 13.2 7.8 4.3 55 4.3 N 22 28 12 15 - - 0.0
29/03:20pm 13.1 7.8 3.0 50 4.8 NNE 20 26 11 14 - - 0.0
29/03:10pm 13.0 7.7 2.9 50 4.7 N 20 26 11 14 - - 0.0
29/03:00pm 13.2 7.4 2.5 48 5.0 N 22 28 12 15 - - 0.0
29/02:50pm 13.6 8.0 3.2 49 4.9 N 22 28 12 15 - - 0.0
29/02:40pm 14.1 8.5 3.5 49 5.1 N 22 28 12 15 - - 0.0
29/02:30pm 13.7 8.4 3.1 48 5.0 N 20 26 11 14 - - 0.0
29/02:20pm 13.9 7.6 4.0 51 4.8 N 26 30 14 16 - - 0.0
29/02:10pm 14.3 8.6 4.9 53 4.6 NNE 24 28 13 15 - - 0.0
29/02:00pm 14.3 9.4 5.1 54 4.6 NNE 20 24 11 13 - - 0.0
29/01:50pm 14.2 8.2 3.6 49 5.1 NNE 24 28 13 15 - - 0.0
29/01:40pm 14.5 8.7 4.4 50 4.9 NNE 24 30 13 16 - - 0.0
29/01:30pm 14.7 9.5 5.7 55 4.5 NE 22 28 12 15 - - 0.0
29/01:20pm 14.5 9.9 6.4 58 4.1 NNE 20 28 11 15 - - 0.0
29/01:10pm 14.1 8.5 5.3 55 4.4 NNE 24 28 13 15 - - 0.0
29/01:00pm 14.0 8.8 5.7 57 4.2 NE 22 26 12 14 - - 0.0
29/12:50pm 14.0 8.7 4.8 54 4.5 NE 22 28 12 15 - - 0.0
29/12:40pm 13.9 8.6 4.9 54 4.4 NE 22 24 12 13 - - 0.0
29/12:30pm 14.1 9.2 5.1 54 4.5 NE 20 26 11 14 - - 0.0
29/12:20pm 13.7 8.9 5.4 57 4.1 NE 20 26 11 14 - - 0.0
29/12:10pm 13.7 9.2 6.0 59 3.9 NE 19 24 10 13 - - 0.0
29/12:00pm 13.5 8.9 5.8 59 3.9 NE 19 22 10 12 - - 0.0
29/11:50am 13.3 8.4 5.2 58 4.0 NNE 20 24 11 13 - - 0.0
29/11:40am 13.5 9.2 7.0 65 3.3 NNE 19 20 10 11 - - 0.0
29/11:30am 13.1 9.3 7.4 68 2.9 NE 17 22 9 12 - - 0.0
29/11:20am 13.2 8.8 6.4 63 3.4 NNE 19 20 10 11 - - 0.0
29/11:10am 13.0 8.4 5.4 60 3.8 N 19 24 10 13 - - 0.0
29/11:00am 12.7 7.8 4.9 59 3.8 NNE 20 22 11 12 - - 0.0
29/10:50am 12.6 7.9 5.0 60 3.7 NNE 19 22 10 12 - - 0.0
29/10:40am 12.2 7.7 6.2 67 3.0 NNE 19 22 10 12 - - 0.0
29/10:30am 12.3 7.8 6.1 66 3.1 NE 19 22 10 12 - - 0.0
29/10:20am 12.1 8.7 6.0 66 3.0 N 13 19 7 10 - - 0.0
29/10:10am 12.4 10.0 4.5 58 3.8 NNE 6 7 3 4 - - 0.0
29/10:00am 12.1 10.1 4.6 60 3.6 E 4 6 2 3 - - 0.0
29/09:50am 11.2 9.6 6.3 72 2.4 SE 4 6 2 3 - - 0.0
29/09:40am 11.0 9.2 5.6 69 2.6 S 4 9 2 5 - - 0.0
29/09:30am 9.9 8.0 5.1 72 2.3 SE 4 7 2 4 - - 0.0
29/09:20am 9.5 7.5 4.2 69 2.5 SSW 4 4 2 2 - - 0.0
29/09:10am 9.0 7.3 3.8 70 2.4 WNW 2 6 1 3 - - 0.0
29/09:00am 8.0 5.4 3.3 72 2.1 ESE 6 9 3 5 - - 0.0
29/08:50am 8.1 5.9 3.5 73 2.1 NNE 4 4 2 2 - - 0.0
29/08:40am 7.6 5.4 3.4 75 1.9 S 4 6 2 3 - - 0.0
29/08:30am 6.4 4.5 2.6 77 1.7 WNW 2 4 1 2 - - 0.0
29/08:20am 5.7 3.4 2.9 82 1.2 WSW 4 6 2 3 - - 0.0
29/08:10am 6.0 3.3 2.7 79 1.5 W 6 7 3 4 - - 0.0
29/08:00am 5.1 3.1 2.5 83 1.1 S 2 6 1 3 - - 0.0
29/07:50am 4.4 2.0 2.2 86 0.9 N 4 6 2 3 - - 0.0
29/07:40am 4.1 1.8 2.8 91 0.6 NNW 4 7 2 4 - - 0.0
29/07:30am 3.9 1.2 2.4 90 0.6 WNW 6 7 3 4 - - 0.0
29/07:20am 3.9 1.2 2.5 91 0.6 W 6 7 3 4 - - 0.0
29/07:10am 3.9 1.6 2.8 92 0.5 WNW 4 6 2 3 - - 0.0
29/07:00am 3.7 1.4 2.5 92 0.5 NW 4 6 2 3 - - 0.0
29/06:50am 3.6 1.6 2.4 92 0.5 E 2 4 1 2 - - 0.0
29/06:40am 3.5 1.1 2.4 92 0.5 ENE 4 6 2 3 - - 0.0
29/06:30am 3.5 1.1 2.3 92 0.5 ENE 4 6 2 3 - - 0.0
29/06:20am 3.4 1.1 2.5 94 0.4 NNW 4 6 2 3 - - 0.0
29/06:10am 3.3 0.6 2.4 94 0.4 NW 6 7 3 4 - - 0.0
29/06:00am 3.0 0.2 2.2 94 0.3 NW 6 6 3 3 - - 0.0
29/05:50am 2.8 0.3 1.8 93 0.4 NNW 4 4 2 2 - - 0.0
29/05:40am 2.6 0.2 2.0 96 0.3 NNW 4 6 2 3 - - 0.0
29/05:30am 2.4 0.3 1.6 94 0.3 N 2 4 1 2 - - 0.0
29/05:20am 2.7 0.6 1.9 94 0.3 SE 2 2 1 1 - - 0.0
29/05:10am 2.6 0.5 1.7 94 0.4 WNW 2 4 1 2 - - 0.0
29/05:00am 2.3 0.2 1.6 95 0.3 W 2 4 1 2 - - 0.0
29/04:50am 2.0 -0.2 1.2 94 0.3 S 2 2 1 1 - - 0.0
29/04:40am 2.3 0.2 1.4 94 0.4 N 2 2 1 1 - - 0.0
29/04:30am 2.2 0.1 1.4 94 0.3 NW 2 4 1 2 - - 0.0
29/04:20am 2.1 -0.4 1.4 95 0.3 NW 4 6 2 3 - - 0.0
29/04:10am 1.9 -0.3 1.3 96 0.2 NNW 2 4 1 2 - - 0.0
29/04:00am 1.7 -0.5 1.1 96 0.2 NNW 2 4 1 2 - - 0.0
29/03:50am 1.8 -0.4 1.1 95 0.3 N 2 4 1 2 - - 0.0
29/03:40am 2.0 -0.2 1.1 94 0.4 NW 2 4 1 2 - - 0.0
29/03:30am 2.0 -0.9 1.2 94 0.3 WSW 6 6 3 3 - - 0.0
29/03:20am 1.7 -0.9 0.8 94 0.4 S 4 4 2 2 - - 0.0
29/03:10am 1.6 -1.0 0.9 95 0.3 SSE 4 4 2 2 - - 0.0
29/03:00am 1.5 -0.8 0.7 94 0.3 ESE 2 2 1 1 - - 0.0
29/02:50am 1.5 -1.1 0.9 96 0.2 S 4 6 2 3 - - 0.0
29/02:40am 1.3 -1.4 0.6 95 0.3 S 4 6 2 3 - - 0.0
29/02:30am 1.9 -0.7 1.0 94 0.4 SSE 4 4 2 2 - - 0.0
29/02:20am 2.1 -0.1 1.1 93 0.4 S 2 2 1 1 - - 0.0
29/02:10am 2.1 -0.1 1.1 93 0.4 SE 2 2 1 1 - - 0.0
29/02:00am 2.2 0.0 1.3 94 0.4 E 2 2 1 1 - - 0.0
29/01:50am 2.2 0.0 1.2 93 0.4 ESE 2 4 1 2 - - 0.0
29/01:40am 2.1 0.0 1.4 95 0.3 NE 2 4 1 2 - - 0.0
29/01:30am 2.1 -0.1 1.3 94 0.3 NE 2 4 1 2 - - 0.0
29/01:20am 2.2 0.0 1.1 92 0.4 WNW 2 2 1 1 - - 0.0
29/01:10am 2.2 -0.3 1.3 94 0.4 SSE 4 4 2 2 - - 0.0
29/01:00am 2.6 0.1 1.5 92 0.5 SE 4 4 2 2 - - 0.0
29/12:50am 2.8 0.7 1.6 92 0.5 E 2 2 1 1 - - 0.0
29/12:40am 2.8 0.7 1.7 92 0.5 W 2 2 1 1 - - 0.0
29/12:30am 2.7 0.6 1.7 93 0.4 WSW 2 4 1 2 - - 0.0
29/12:20am 2.7 0.6 1.6 92 0.5 WNW 2 4 1 2 - - 0.0
29/12:10am 3.3 0.4 1.4 87 0.8 SSE 6 6 3 3 - - 0.0
29/12:00am 3.5 0.5 1.9 89 0.7 SSE 7 7 4 4 - - 0.0
 
Date/Time
EST
Temp
°C
App
Temp
°C
Dew
Point
°C
Rel
Hum
%
Delta-T
°C
Wind Press
QNH
hPa
Press
MSL
hPa
Rain since
9am
mm
Dir  Spd
km/h
Gust
km/h
Spd
kts
Gust
kts
28/11:50pm 3.5 0.5 1.8 89 0.7 SSE 7 7 4 4 - - 0.0
28/11:40pm 3.4 0.9 1.6 88 0.8 W 4 7 2 4 - - 0.0
28/11:30pm 4.0 1.5 1.5 84 1.0 S 4 6 2 3 - - 0.0
28/11:20pm 4.3 1.8 1.5 82 1.2 SSE 4 7 2 4 - - 0.0
28/11:10pm 4.5 2.4 1.8 83 1.1 SE 2 4 1 2 - - 0.0
28/11:00pm 4.4 1.9 1.7 83 1.1 SE 4 6 2 3 - - 0.0
28/10:50pm 4.7 2.2 1.5 80 1.4 E 4 6 2 3 - - 0.0
28/10:40pm 4.6 2.6 2.3 85 1.0 WSW 2 2 1 1 - - 0.0
28/10:30pm 4.8 2.8 2.2 83 1.1 SW 2 4 1 2 - - 0.0
28/10:20pm 5.0 3.0 2.3 83 1.2 SSW 2 2 1 1 - - 0.0
28/10:10pm 5.0 3.0 2.5 84 1.1 N 2 4 1 2 - - 0.0
28/10:00pm 5.7 3.7 2.4 79 1.4 ESE 2 4 1 2 - - 0.0
28/09:50pm 5.9 3.5 2.3 78 1.6 SE 4 4 2 2 - - 0.0
28/09:40pm 5.9 3.2 2.4 78 1.5 S 6 6 3 3 - - 0.0
28/09:30pm 6.3 3.6 2.4 76 1.7 SE 6 6 3 3 - - 0.0
28/09:20pm 6.1 3.2 2.6 78 1.5 S 7 7 4 4 - - 0.0
28/09:10pm 6.3 3.6 2.7 78 1.6 SSW 6 7 3 4 - - 0.0
28/09:00pm 6.5 4.2 2.8 77 1.6 S 4 7 2 4 - - 0.0
28/08:50pm 7.0 4.7 2.8 74 1.9 WSW 4 6 2 3 - - 0.0
28/08:40pm 7.2 3.6 2.9 74 1.9 NNE 11 15 6 8 - - 0.0
28/08:30pm 6.8 4.2 3.1 77 1.7 N 6 7 3 4 - - 0.0
28/08:20pm 7.0 3.8 3.3 77 1.7 N 9 13 5 7 - - 0.0
28/08:10pm 7.2 3.6 3.2 76 1.8 NE 11 15 6 8 - - 0.0
28/08:00pm 7.9 4.4 3.3 73 2.1 NE 11 13 6 7 - - 0.0
28/07:50pm 8.1 3.8 3.5 73 2.1 NE 15 17 8 9 - - 0.0
28/07:40pm 8.0 4.1 3.5 73 2.1 NE 13 15 7 8 - - 0.0
28/07:30pm 7.9 4.8 3.4 73 2.0 ENE 9 17 5 9 - - 0.0
28/07:20pm 8.4 4.9 3.6 72 2.2 E 11 20 6 11 - - 0.0
28/07:10pm 8.3 5.2 3.8 73 2.1 E 9 15 5 8 - - 0.0
28/07:00pm 8.8 4.6 3.8 71 2.3 NE 15 15 8 8 - - 0.0
28/06:50pm 9.1 5.3 3.9 70 2.4 NE 13 15 7 8 - - 0.0
28/06:40pm 9.4 5.9 3.6 67 2.7 NE 11 11 6 6 - - 0.0
28/06:30pm 9.4 6.0 3.8 68 2.6 NE 11 11 6 6 - - 0.0
28/06:20pm 9.9 7.2 3.7 65 2.9 NE 7 9 4 5 - - 0.0
28/06:10pm 10.0 7.5 3.5 64 3.0 NNE 6 7 3 4 - - 0.0
28/06:00pm 9.6 6.9 3.9 67 2.7 NNW 7 9 4 5 - - 0.0
28/05:50pm 9.6 6.2 3.8 67 2.7 NW 11 13 6 7 - - 0.0
28/05:40pm 9.7 5.2 4.1 68 2.6 NW 17 19 9 10 - - 0.0
28/05:30pm 9.8 4.9 4.2 68 2.6 NW 19 19 10 10 - - 0.0
28/05:20pm 10.1 5.2 4.3 67 2.7 NW 19 20 10 11 - - 0.0
28/05:10pm 10.3 5.4 4.3 66 2.8 NW 19 20 10 11 - - 0.0
28/05:00pm 10.7 5.9 4.6 66 2.9 NNW 19 20 10 11 - - 0.0
28/04:50pm 10.9 5.8 4.0 62 3.3 N 20 22 11 12 - - 0.0
28/04:40pm 11.0 6.1 4.1 62 3.3 N 19 22 10 12 - - 0.0
28/04:30pm 11.4 7.2 4.0 60 3.5 N 15 17 8 9 - - 0.0
28/04:20pm 11.7 7.0 2.9 55 4.1 N 17 20 9 11 - - 0.0
28/04:10pm 12.1 7.4 3.0 53 4.3 N 17 20 9 11 - - 0.0
28/04:00pm 12.4 7.0 2.6 51 4.5 N 20 26 11 14 - - 0.0
28/03:50pm 13.6 8.3 3.1 49 5.0 N 20 24 11 13 - - 0.0
28/03:40pm 13.7 8.1 3.2 49 5.0 N 22 26 12 14 - - 0.0
28/03:30pm 14.0 8.1 1.8 43 5.6 N 22 28 12 15 - - 0.0
28/03:20pm 14.0 8.7 2.0 44 5.6 NNE 19 24 10 13 - - 0.0
28/03:10pm 14.1 8.6 1.7 43 5.7 N 20 24 11 13 - - 0.0
28/03:00pm 14.2 8.6 1.1 41 6.0 N 20 24 11 13 - - 0.0
28/02:50pm 14.2 8.9 2.0 43 5.7 N 19 22 10 12 - - 0.0
28/02:40pm 14.3 9.0 1.7 42 5.8 N 19 24 10 13 - - 0.0
28/02:30pm 14.3 9.4 -0.5 36 6.5 NNE 15 19 8 10 - - 0.0
28/02:20pm 14.0 8.3 -1.1 35 6.6 NNE 19 22 10 12 - - 0.0
28/02:10pm 14.3 9.2 0.5 39 6.2 NNE 17 20 9 11 - - 0.0
28/02:00pm 14.0 9.0 -1.4 34 6.6 NNE 15 20 8 11 - - 0.0
28/01:50pm 14.1 9.0 0.6 39 6.1 N 17 20 9 11 - - 0.0
28/01:40pm 14.0 9.6 0.2 39 6.2 N 13 19 7 10 - - 0.0
28/01:30pm 13.9 8.9 1.3 42 5.8 NNE 17 26 9 14 - - 0.0
28/01:20pm 13.8 8.8 1.3 42 5.7 NNE 17 20 9 11 - - 0.0
28/01:10pm 13.7 9.1 1.8 44 5.5 NE 15 20 8 11 - - 0.0
28/01:00pm 13.7 8.6 0.6 40 5.9 NNE 17 22 9 12 - - 0.0
28/12:50pm 13.5 8.4 0.6 41 5.8 NNE 17 20 9 11 - - 0.0
28/12:40pm 13.1 8.5 1.8 46 5.2 NNE 15 19 8 10 - - 0.0
28/12:30pm 13.5 8.4 0.5 41 5.8 N 17 20 9 11 - - 0.0
28/12:20pm 13.2 7.8 1.2 44 5.4 NE 19 22 10 12 - - 0.0
28/12:10pm 12.8 7.5 2.1 48 4.9 NNE 19 22 10 12 - - 0.0
28/12:00pm 13.0 7.9 3.0 50 4.7 NNE 19 20 10 11 - - 0.0
28/11:50am 12.7 7.7 -1.5 37 6.0 NE 15 22 8 12 - - 0.0
28/11:40am 12.4 7.0 1.1 46 5.1 NNE 19 20 10 11 - - 0.0
28/11:30am 12.2 7.1 0.9 46 5.0 NE 17 19 9 10 - - 0.0
28/11:20am 12.5 8.3 1.4 46 5.0 NNE 13 17 7 9 - - 0.0
28/11:10am 12.3 7.5 0.1 43 5.4 N 15 19 8 10 - - 0.0
28/11:00am 12.2 7.5 0.6 45 5.1 NE 15 19 8 10 - - 0.0
28/10:50am 11.8 7.1 1.2 48 4.7 NNE 15 19 8 10 - - 0.0
28/10:40am 12.0 7.7 1.1 47 4.9 NNE 13 15 7 8 - - 0.0
28/10:30am 11.7 7.0 0.6 46 4.9 NNE 15 17 8 9 - - 0.0
28/10:20am 11.7 7.6 -0.3 43 5.2 NNE 11 15 6 8 - - 0.0
28/10:10am 11.4 7.5 -1.5 40 5.4 N 9 11 5 6 - - 0.0
28/10:00am 11.2 6.8 0.5 47 4.7 NE 13 15 7 8 - - 0.0
28/09:50am 11.0 6.8 -1.0 43 5.1 NE 11 15 6 8 - - 0.0
28/09:40am 11.3 7.4 -1.6 40 5.4 NE 9 11 5 6 - - 0.0
28/09:30am 10.7 7.2 -1.5 42 5.1 ENE 7 9 4 5 - - 0.0
28/09:20am 10.5 7.2 -1.1 44 4.9 ENE 6 9 3 5 - - 0.0
28/09:10am 10.0 7.2 -0.5 48 4.5 ESE 4 4 2 2 - - 0.0
28/09:00am 8.9 6.7 1.1 58 3.4 SE 2 4 1 2 - - 0.4
28/08:50am 8.2 5.7 1.3 62 3.0 E 4 4 2 2 - - 0.4
28/08:40am 7.5 5.0 1.5 66 2.6 ESE 4 4 2 2 - - 0.4
28/08:30am 7.2 4.6 1.2 65 2.6 NNE 4 4 2 2 - - 0.4
28/08:20am 6.6 4.0 1.1 68 2.3 NE 4 4 2 2 - - 0.4
28/08:10am 5.6 3.4 1.0 72 1.9 ENE 2 4 1 2 - - 0.4
28/08:00am 4.5 1.7 -0.3 71 1.9 ESE 4 4 2 2 - - 0.4
28/07:50am 4.4 2.1 0.1 73 1.7 ESE 2 4 1 2 - - 0.4
28/07:40am 4.1 1.7 -0.1 74 1.7 ESE 2 2 1 1 - - 0.4
28/07:30am 3.1 0.7 -0.4 78 1.4 N 2 2 1 1 - - 0.4
28/07:20am 2.7 0.2 -0.8 78 1.4 NE 2 2 1 1 - - 0.4
28/07:10am 1.7 -0.8 -1.1 82 1.1 N 2 2 1 1 - - 0.4
28/07:00am 1.1 -1.5 -1.5 83 1.0 WNW 2 4 1 2 - - 0.4
28/06:50am 0.6 -2.0 -1.8 84 0.9 WSW 2 2 1 1 - - 0.4
28/06:40am -0.1 -3.2 -2.5 84 0.9 S 4 4 2 2 - - 0.4
28/06:30am -0.5 -3.6 -2.8 84 0.8 S 4 6 2 3 - - 0.4
28/06:20am -1.5 -5.0 -3.2 88 0.5 S 6 6 3 3 - - 0.4
28/06:10am -2.1 -5.6 -3.2 92 0.3 S 6 6 3 3 - - 0.4
28/06:00am -2.0 -4.8 -3.1 92 0.3 S 2 6 1 3 - - 0.4
28/05:50am -2.2 -5.0 -3.2 93 0.2 WNW 2 4 1 2 - - 0.4
28/05:40am -2.1 -4.9 -3.0 94 0.2 SW 2 2 1 1 - - 0.4
28/05:30am -2.0 -4.8 -3.0 93 0.3 S 2 4 1 2 - - 0.4
28/05:20am -2.0 -5.1 -3.0 93 0.3 SE 4 6 2 3 - - 0.4
28/05:10am -2.0 -5.1 -3.0 93 0.3 E 4 4 2 2 - - 0.4
28/05:00am -2.3 -5.1 -3.1 94 0.2 E 2 4 1 2 - - 0.4
28/04:50am -2.1 -5.2 -3.0 94 0.2 SSE 4 4 2 2 - - 0.4
28/04:40am -1.9 -4.7 -2.9 93 0.3 SSW 2 2 1 1 - - 0.4
28/04:30am -1.8 -4.6 -2.9 92 0.3 W 2 4 1 2 - - 0.4
28/04:20am -1.9 -4.6 -2.8 94 0.2 SSE 2 4 1 2 - - 0.4
28/04:10am -1.8 -4.5 -2.6 94 0.2 E 2 4 1 2 - - 0.4
28/04:00am -1.7 -4.5 -3.0 91 0.4 NNW 2 4 1 2 - - 0.4
28/03:50am -1.6 -4.7 -2.7 92 0.3 SSE 4 6 2 3 - - 0.4
28/03:40am -1.3 -4.0 -2.5 91 0.4 SSW 2 4 1 2 - - 0.4
28/03:30am -1.1 -3.8 -2.6 89 0.5 SW 2 2 1 1 - - 0.4
28/03:20am -1.1 -3.8 -2.5 90 0.5 S 2 4 1 2 - - 0.4
28/03:10am -1.0 -3.7 -2.5 89 0.5 SSE 2 4 1 2 - - 0.4
28/03:00am -0.9 -4.0 -2.6 88 0.6 SSE 4 4 2 2 - - 0.4
28/02:50am -0.9 -3.6 -2.5 89 0.5 SE 2 4 1 2 - - 0.4
28/02:40am -1.0 -3.7 -2.5 89 0.5 E 2 4 1 2 - - 0.4
28/02:30am -0.9 -3.6 -2.4 89 0.5 NNE 2 2 1 1 - - 0.4
28/02:20am -0.5 -3.2 -2.3 88 0.6 N 2 4 1 2 - - 0.4
28/02:10am -0.4 -3.1 -2.3 87 0.7 NNW 2 4 1 2 - - 0.4
28/02:00am -0.5 -3.2 -2.2 88 0.6 NW 2 2 1 1 - - 0.4

Latest Capital City Observations: Canberra | Sydney | Melbourne | Brisbane | Adelaide | Perth | Hobart | Darwin

Other formats

Comma delimited format used in spreadsheet applications
http://www.bom.gov.au/fwo/IDN60903/IDN60903.99765.axf

JavaScript Object Notation format (JSON) in row-major order
http://www.bom.gov.au/fwo/IDN60903/IDN60903.99765.json

Data quality

Most of these data are generated automatically and are frequently updated. Quality checks on data are not normally performed. It is possible for incorrect values to appear. Refer to information at About Latest Weather Observations and please check the disclaimer before using these data.